createdAt,value
2023-02-16T00:00:46.345Z,53.40
2023-02-16T00:03:17.152Z,52.87
2023-02-16T00:05:47.032Z,54.80
2023-02-16T00:08:15.202Z,53.77
2023-02-16T00:11:03.713Z,51.43
2023-02-16T00:13:48.087Z,53.63
2023-02-16T00:16:18.961Z,54.20
2023-02-16T00:18:47.851Z,51.20
2023-02-16T00:21:17.544Z,56.30
2023-02-16T00:23:45.953Z,53.13
2023-02-16T00:26:17.097Z,55.20
2023-02-16T00:28:46.981Z,50.00
2023-02-16T00:31:20.757Z,60.83
2023-02-16T00:33:49.611Z,51.23
2023-02-16T00:36:22.860Z,50.67
2023-02-16T00:38:51.435Z,52.47
2023-02-16T00:41:39.348Z,53.30
2023-02-16T00:44:08.244Z,50.87
2023-02-16T00:46:37.439Z,52.30
2023-02-16T00:49:05.652Z,52.97
2023-02-16T00:51:35.145Z,56.10
2023-02-16T00:54:03.285Z,59.83
2023-02-16T00:56:33.184Z,55.97
2023-02-16T00:59:02.889Z,53.33
2023-02-16T01:01:33.531Z,51.60
2023-02-16T01:04:04.296Z,55.17
2023-02-16T01:06:46.380Z,57.73
2023-02-16T01:09:35.020Z,56.83
2023-02-16T01:12:05.480Z,59.40
2023-02-16T01:14:34.582Z,57.50
2023-02-16T01:17:02.668Z,56.13
2023-02-16T01:19:30.912Z,56.47
2023-02-16T01:21:59.085Z,51.70
2023-02-16T01:24:30.865Z,53.87
2023-02-16T01:26:59.113Z,51.60
2023-02-16T01:29:27.366Z,53.50
2023-02-16T01:31:55.756Z,50.93
2023-02-16T01:34:25.510Z,48.70
2023-02-16T01:36:53.692Z,48.83
2023-02-16T01:39:22.059Z,51.40
2023-02-16T01:42:08.269Z,50.77
2023-02-16T01:44:42.529Z,43.43
2023-02-16T01:47:26.098Z,48.23
2023-02-16T01:49:54.360Z,46.77
2023-02-16T01:52:30.321Z,56.33
2023-02-16T01:55:05.676Z,53.93
2023-02-16T01:57:40.976Z,47.83
2023-02-16T02:00:17.451Z,48.17
2023-02-16T02:02:50.625Z,50.50
2023-02-16T02:05:35.497Z,53.07
2023-02-16T02:08:11.918Z,51.33
2023-02-16T02:10:47.826Z,52.63
2023-02-16T02:13:22.734Z,50.87
2023-02-16T02:15:51.141Z,46.83
2023-02-16T02:18:19.823Z,49.67
2023-02-16T02:21:18.257Z,53.13
2023-02-16T02:24:20.078Z,45.77
2023-02-16T02:27:10.961Z,47.43
2023-02-16T02:30:05.913Z,45.30
2023-02-16T02:32:49.909Z,50.00
2023-02-16T02:35:34.193Z,44.77
2023-02-16T02:38:10.515Z,50.60
2023-02-16T02:40:55.666Z,52.60
2023-02-16T02:43:33.204Z,48.57
2023-02-16T02:46:08.500Z,44.03
2023-02-16T02:48:36.913Z,45.63
2023-02-16T02:51:30.873Z,47.63
2023-02-16T02:54:25.846Z,48.23
2023-02-16T02:57:21.519Z,42.03
2023-02-16T03:00:15.222Z,48.57
2023-02-16T03:02:46.324Z,41.87
2023-02-16T03:05:16.304Z,46.07
2023-02-16T03:07:49.180Z,46.70
2023-02-16T03:10:38.162Z,44.23
2023-02-16T03:13:12.273Z,43.40
2023-02-16T03:15:43.299Z,51.13
2023-02-16T03:18:31.304Z,44.30
2023-02-16T03:21:18.272Z,41.63
2023-02-16T03:24:05.566Z,46.17
2023-02-16T03:26:51.919Z,41.57
2023-02-16T03:29:26.672Z,40.40
2023-02-16T03:31:57.999Z,43.30
2023-02-16T03:34:27.257Z,41.57
2023-02-16T03:37:00.194Z,42.67
2023-02-16T03:39:29.648Z,42.73
2023-02-16T03:41:59.237Z,42.10
2023-02-16T03:44:27.303Z,46.03
2023-02-16T03:46:57.408Z,38.83
2023-02-16T03:49:25.509Z,41.27
2023-02-16T03:51:53.697Z,48.30
2023-02-16T03:54:21.755Z,40.53
2023-02-16T03:56:49.901Z,48.83
2023-02-16T03:59:20.262Z,42.60
2023-02-16T04:01:48.387Z,47.17
2023-02-16T04:04:17.934Z,44.97
2023-02-16T04:06:46.326Z,45.73
2023-02-16T04:09:14.412Z,41.47
2023-02-16T04:11:59.746Z,48.23
2023-02-16T04:14:27.818Z,43.83
2023-02-16T04:16:56.916Z,45.03
2023-02-16T04:19:26.433Z,48.17
2023-02-16T04:21:54.536Z,44.50
2023-02-16T04:24:22.845Z,45.10
2023-02-16T04:26:50.961Z,41.40
2023-02-16T04:29:19.170Z,50.20
2023-02-16T04:31:47.396Z,49.03
2023-02-16T04:34:15.580Z,50.30
2023-02-16T04:36:45.312Z,42.07
2023-02-16T04:39:13.451Z,45.10
2023-02-16T04:41:41.552Z,46.47
2023-02-16T04:44:09.712Z,57.87
2023-02-16T04:46:37.858Z,52.90
2023-02-16T04:49:06.003Z,43.83
2023-02-16T04:51:34.146Z,48.53
2023-02-16T04:54:03.667Z,46.27
2023-02-16T04:56:31.784Z,50.17
2023-02-16T04:58:59.995Z,47.70
2023-02-16T05:01:29.100Z,48.10
2023-02-16T05:03:57.372Z,47.87
2023-02-16T05:06:25.446Z,48.73
2023-02-16T05:08:53.627Z,49.77
2023-02-16T05:11:40.471Z,50.33
2023-02-16T05:14:26.109Z,46.87
2023-02-16T05:16:54.296Z,44.27
2023-02-16T05:19:22.393Z,45.77
2023-02-16T05:21:50.458Z,52.30
2023-02-16T05:24:18.586Z,48.00
2023-02-16T05:26:48.124Z,47.50
2023-02-16T05:29:16.287Z,55.27
2023-02-16T05:31:44.513Z,44.13
2023-02-16T05:34:13.021Z,43.50
2023-02-16T05:36:41.334Z,47.30
2023-02-16T05:39:09.499Z,47.43
2023-02-16T05:41:37.889Z,48.73
2023-02-16T05:44:08.813Z,48.80
2023-02-16T05:46:39.241Z,47.03
2023-02-16T05:49:08.930Z,48.57
2023-02-16T05:51:38.287Z,48.50
2023-02-16T05:54:07.489Z,43.37
2023-02-16T05:56:35.654Z,45.03
2023-02-16T05:59:03.893Z,47.97
2023-02-16T06:01:33.376Z,43.57
2023-02-16T06:04:01.628Z,47.40
2023-02-16T06:06:29.865Z,48.30
2023-02-16T06:08:57.970Z,45.90
2023-02-16T06:11:37.802Z,41.47
2023-02-16T06:14:09.036Z,50.93
2023-02-16T06:16:40.514Z,48.87
2023-02-16T06:19:09.466Z,47.07
2023-02-16T06:21:40.511Z,48.53
2023-02-16T06:24:10.117Z,45.97
2023-02-16T06:26:38.328Z,39.97
2023-02-16T06:29:08.150Z,55.03
2023-02-16T06:31:36.976Z,50.67
2023-02-16T06:34:07.060Z,55.27
2023-02-16T06:36:35.296Z,54.83
2023-02-16T06:39:03.492Z,56.47
2023-02-16T06:41:38.074Z,54.37
2023-02-16T06:44:08.073Z,50.80
2023-02-16T06:46:36.585Z,51.50
2023-02-16T06:49:06.188Z,53.13
2023-02-16T06:51:34.796Z,56.73
2023-02-16T06:54:02.896Z,49.90
2023-02-16T06:56:32.256Z,53.17
2023-02-16T06:59:00.570Z,51.40
2023-02-16T07:01:29.037Z,53.67
2023-02-16T07:03:58.425Z,61.57
2023-02-16T07:06:29.955Z,49.30
2023-02-16T07:08:58.397Z,45.63
2023-02-16T07:11:26.612Z,40.87
2023-02-16T07:13:54.707Z,42.13
2023-02-16T07:16:22.916Z,53.13
2023-02-16T07:18:51.504Z,45.70
2023-02-16T07:21:19.649Z,48.30
2023-02-16T07:23:49.284Z,47.50
2023-02-16T07:26:17.660Z,44.97
2023-02-16T07:28:45.885Z,36.97
2023-02-16T07:31:16.281Z,35.90
2023-02-16T07:33:46.249Z,37.30
2023-02-16T07:36:14.948Z,33.20
2023-02-16T07:38:43.130Z,36.97
2023-02-16T07:41:13.286Z,40.97
2023-02-16T07:43:43.081Z,32.03
2023-02-16T07:46:11.696Z,38.87
2023-02-16T07:48:40.196Z,42.43
2023-02-16T07:51:08.535Z,38.03
2023-02-16T07:53:36.868Z,34.30
2023-02-16T07:56:06.237Z,37.50
2023-02-16T07:58:36.902Z,28.37
2023-02-16T08:01:10.779Z,37.37
2023-02-16T08:03:39.720Z,35.47
2023-02-16T08:06:09.231Z,37.30
2023-02-16T08:08:38.378Z,37.33
2023-02-16T08:11:11.016Z,32.33
2023-02-16T08:13:41.059Z,33.70
2023-02-16T08:16:10.266Z,36.60
2023-02-16T08:18:38.869Z,39.07
2023-02-16T08:21:14.969Z,36.53
2023-02-16T08:23:47.782Z,31.57
2023-02-16T08:26:18.350Z,40.33
2023-02-16T08:28:50.257Z,37.03
2023-02-16T08:31:20.771Z,35.73
2023-02-16T08:33:49.147Z,35.60
2023-02-16T08:36:21.441Z,37.87
2023-02-16T08:38:51.115Z,33.67
2023-02-16T08:41:19.750Z,34.53
2023-02-16T08:43:50.145Z,34.50
2023-02-16T08:46:18.883Z,31.97
2023-02-16T08:48:47.518Z,32.23
2023-02-16T08:51:17.787Z,30.63
2023-02-16T08:53:46.907Z,34.83
2023-02-16T08:56:16.978Z,36.10
2023-02-16T08:58:45.272Z,42.70
2023-02-16T09:01:16.603Z,37.73
2023-02-16T09:03:46.536Z,32.83
2023-02-16T09:06:16.187Z,32.37
2023-02-16T09:08:46.611Z,32.30
2023-02-16T09:11:17.082Z,37.77
2023-02-16T09:13:46.884Z,34.80
2023-02-16T09:16:18.905Z,27.20
2023-02-16T09:18:47.880Z,32.93
2023-02-16T09:21:18.380Z,27.73
2023-02-16T09:23:49.220Z,31.07
2023-02-16T09:26:18.591Z,34.70
2023-02-16T09:28:48.247Z,27.80
2023-02-16T09:31:20.457Z,27.90
2023-02-16T09:33:48.723Z,33.17
2023-02-16T09:36:16.823Z,32.90
2023-02-16T09:38:47.495Z,30.25
2023-02-16T09:41:28.123Z,27.98
2023-02-16T09:44:00.013Z,31.15
2023-02-16T09:46:32.720Z,27.95
2023-02-16T09:49:03.815Z,26.50
2023-02-16T09:51:37.506Z,27.05
2023-02-16T09:54:22.945Z,27.92
2023-02-16T09:56:56.882Z,23.67
2023-02-16T09:59:41.033Z,27.58
2023-02-16T10:02:28.809Z,24.65
2023-02-16T10:05:14.508Z,30.65
2023-02-16T10:07:52.971Z,22.52
2023-02-16T10:10:24.848Z,30.42
2023-02-16T10:12:57.849Z,28.58
2023-02-16T10:15:29.678Z,27.27
2023-02-16T10:18:01.772Z,20.15
2023-02-16T10:20:34.620Z,23.98
2023-02-16T10:23:11.631Z,21.45
2023-02-16T10:25:47.431Z,25.02
2023-02-16T10:28:19.475Z,22.10
2023-02-16T10:30:52.506Z,18.10
2023-02-16T10:33:39.421Z,18.98
2023-02-16T10:36:17.902Z,22.90
2023-02-16T10:38:55.452Z,24.95
2023-02-16T10:41:33.000Z,13.95
2023-02-16T10:44:10.311Z,19.00
2023-02-16T10:46:43.280Z,19.92
2023-02-16T10:49:15.350Z,17.40
2023-02-16T10:51:49.010Z,12.95
2023-02-16T10:54:21.821Z,16.33
2023-02-16T10:56:54.328Z,14.52
2023-02-16T10:59:24.717Z,13.35
2023-02-16T11:01:54.632Z,12.82
2023-02-16T11:04:39.841Z,13.07
2023-02-16T11:07:10.458Z,12.82
2023-02-16T11:09:40.484Z,9.55
2023-02-16T11:12:29.897Z,8.88
2023-02-16T11:15:03.284Z,10.52
2023-02-16T11:17:34.026Z,8.95
2023-02-16T11:20:06.829Z,10.70
2023-02-16T11:22:37.078Z,13.23
2023-02-16T11:25:27.037Z,8.63
2023-02-16T11:27:58.205Z,11.60
2023-02-16T11:30:33.114Z,10.30
2023-02-16T11:33:03.436Z,11.02
2023-02-16T11:35:42.356Z,10.77
2023-02-16T11:38:27.119Z,13.77
2023-02-16T11:40:55.661Z,12.60
2023-02-16T11:43:27.462Z,12.50
2023-02-16T11:46:01.199Z,15.75
2023-02-16T11:48:31.685Z,10.02
2023-02-16T11:51:03.274Z,10.63
2023-02-16T11:53:33.391Z,16.73
2023-02-16T11:56:22.470Z,13.32
2023-02-16T11:59:16.994Z,12.38
2023-02-16T12:01:59.388Z,10.45
2023-02-16T12:04:42.785Z,12.93
2023-02-16T12:07:24.512Z,12.93
2023-02-16T12:10:03.773Z,15.73
2023-02-16T12:12:38.556Z,12.07
2023-02-16T12:15:19.678Z,12.73
2023-02-16T12:18:04.285Z,11.50
2023-02-16T12:20:42.488Z,12.50
2023-02-16T12:23:38.309Z,11.10
2023-02-16T12:26:34.393Z,10.77
2023-02-16T12:29:16.311Z,13.30
2023-02-16T12:31:59.069Z,11.48
2023-02-16T12:34:36.480Z,13.98
2023-02-16T12:37:14.152Z,10.38
2023-02-16T12:39:56.802Z,12.50
2023-02-16T12:42:38.897Z,11.93
2023-02-16T12:45:14.224Z,12.65
2023-02-16T12:47:47.813Z,11.02
2023-02-16T12:50:21.346Z,15.27
2023-02-16T12:52:56.199Z,13.57
2023-02-16T12:55:30.644Z,12.05
2023-02-16T12:58:11.270Z,14.05
2023-02-16T13:00:46.178Z,13.55
2023-02-16T13:03:31.305Z,11.02
2023-02-16T13:06:09.842Z,14.25
2023-02-16T13:08:44.978Z,10.80
2023-02-16T13:11:21.365Z,15.63
2023-02-16T13:13:52.739Z,16.42
2023-02-16T13:16:30.558Z,10.70
2023-02-16T13:18:59.348Z,12.48
2023-02-16T13:21:51.276Z,11.55
2023-02-16T13:24:33.420Z,9.05
2023-02-16T13:27:18.272Z,11.75
2023-02-16T13:30:06.135Z,13.98
2023-02-16T13:32:50.895Z,10.05
2023-02-16T13:35:42.930Z,8.23
2023-02-16T13:38:31.913Z,9.95
2023-02-16T13:41:29.407Z,17.17
2023-02-16T13:44:02.853Z,9.48
2023-02-16T13:46:34.087Z,7.45
2023-02-16T13:49:03.587Z,11.07
2023-02-16T13:51:43.422Z,11.00
2023-02-16T13:54:26.111Z,13.95
2023-02-16T13:56:54.250Z,12.88
2023-02-16T13:59:59.427Z,15.18
2023-02-16T14:02:55.732Z,15.52
2023-02-16T14:05:34.062Z,11.98
2023-02-16T14:08:24.443Z,13.73
2023-02-16T14:11:10.733Z,9.95
2023-02-16T14:13:48.394Z,10.50
2023-02-16T14:16:34.652Z,10.98
2023-02-16T14:19:20.565Z,8.35
2023-02-16T14:21:50.397Z,8.52
2023-02-16T14:24:31.180Z,9.82
2023-02-16T14:27:01.151Z,7.30
2023-02-16T14:29:32.726Z,13.55
2023-02-16T14:32:06.067Z,15.25
2023-02-16T14:34:41.703Z,9.77
2023-02-16T14:37:34.911Z,14.55
2023-02-16T14:40:15.458Z,12.55
2023-02-16T14:42:52.630Z,10.82
2023-02-16T14:45:55.362Z,9.75
2023-02-16T14:48:59.165Z,16.55
2023-02-16T14:51:52.522Z,14.85
2023-02-16T14:54:49.641Z,15.25
2023-02-16T14:57:23.548Z,13.57
2023-02-16T14:59:57.338Z,10.70
2023-02-16T15:02:31.931Z,9.48
2023-02-16T15:05:00.106Z,7.87
2023-02-16T15:07:29.940Z,10.67
2023-02-16T15:10:00.047Z,10.87
2023-02-16T15:12:40.933Z,8.27
2023-02-16T15:15:10.857Z,10.07
2023-02-16T15:17:44.982Z,11.67
2023-02-16T15:20:23.364Z,10.07
2023-02-16T15:22:54.521Z,11.77
2023-02-16T15:25:28.041Z,9.63
2023-02-16T15:28:02.957Z,13.83
2023-02-16T15:30:32.149Z,11.53
2023-02-16T15:33:03.138Z,11.30
2023-02-16T15:35:38.172Z,9.83
2023-02-16T15:38:20.261Z,10.37
2023-02-16T15:40:49.073Z,6.47
2023-02-16T15:43:30.950Z,10.70
2023-02-16T15:46:00.975Z,7.87
2023-02-16T15:48:32.242Z,11.40
2023-02-16T15:51:09.529Z,9.97
2023-02-16T15:53:48.343Z,10.03
2023-02-16T15:56:42.127Z,8.47
2023-02-16T15:59:26.853Z,8.17
2023-02-16T16:01:59.780Z,10.00
2023-02-16T16:04:28.764Z,11.40
2023-02-16T16:06:58.043Z,8.27
2023-02-16T16:09:29.896Z,12.73
2023-02-16T16:12:01.976Z,13.77
2023-02-16T16:14:34.200Z,12.93
2023-02-16T16:17:04.903Z,11.03
2023-02-16T16:19:36.240Z,14.17
2023-02-16T16:22:06.282Z,16.63
2023-02-16T16:24:40.268Z,17.30
2023-02-16T16:27:15.248Z,14.20
2023-02-16T16:29:46.475Z,17.13
2023-02-16T16:32:24.136Z,15.00
2023-02-16T16:34:53.718Z,14.00
2023-02-16T16:37:29.954Z,17.13
2023-02-16T16:40:09.120Z,14.73
2023-02-16T16:42:40.606Z,17.10
2023-02-16T16:45:39.589Z,15.30
2023-02-16T16:48:18.654Z,17.13
2023-02-16T16:50:49.405Z,17.73
2023-02-16T16:53:52.803Z,16.90
2023-02-16T16:56:24.829Z,15.50
2023-02-16T16:58:56.915Z,20.07
2023-02-16T17:01:27.273Z,16.57
2023-02-16T17:03:57.765Z,19.60
2023-02-16T17:06:27.746Z,18.50
2023-02-16T17:08:56.909Z,17.63
2023-02-16T17:11:29.383Z,22.73
2023-02-16T17:14:00.682Z,16.43
2023-02-16T17:16:33.410Z,15.40
2023-02-16T17:19:03.315Z,13.80
2023-02-16T17:21:32.770Z,16.90
2023-02-16T17:24:02.295Z,18.27
2023-02-16T17:26:33.732Z,20.37
2023-02-16T17:29:02.485Z,15.93
2023-02-16T17:31:31.671Z,17.87
2023-02-16T17:34:01.616Z,11.73
2023-02-16T17:36:31.410Z,17.23
2023-02-16T17:39:01.459Z,17.73
2023-02-16T17:41:33.084Z,11.77
2023-02-16T17:44:04.589Z,14.67
2023-02-16T17:46:35.042Z,15.53
2023-02-16T17:49:05.498Z,11.83
2023-02-16T17:51:36.744Z,16.73
2023-02-16T17:54:06.670Z,15.97
2023-02-16T17:56:40.102Z,13.73
2023-02-16T17:59:10.170Z,12.70
2023-02-16T18:01:41.790Z,13.63
2023-02-16T18:04:15.806Z,22.37
2023-02-16T18:06:48.846Z,18.23
2023-02-16T18:09:26.280Z,15.53
2023-02-16T18:11:57.911Z,14.40
2023-02-16T18:14:27.972Z,14.50
2023-02-16T18:17:00.228Z,15.53
2023-02-16T18:19:33.972Z,18.53
2023-02-16T18:22:05.621Z,16.87
2023-02-16T18:24:36.599Z,15.17
2023-02-16T18:27:08.826Z,13.30
2023-02-16T18:29:41.304Z,11.33
2023-02-16T18:32:11.546Z,14.43
2023-02-16T18:34:41.285Z,14.10
2023-02-16T18:37:11.663Z,12.40
2023-02-16T18:39:43.586Z,19.10
2023-02-16T18:42:14.893Z,15.23
2023-02-16T18:44:46.955Z,19.07
2023-02-16T18:47:17.317Z,28.73
2023-02-16T18:49:49.421Z,21.63
2023-02-16T18:52:22.334Z,15.60
2023-02-16T18:54:55.524Z,17.70
2023-02-16T18:57:27.170Z,15.53
2023-02-16T19:00:01.735Z,18.03
2023-02-16T19:02:32.963Z,22.73
2023-02-16T19:05:08.800Z,15.20
2023-02-16T19:07:39.369Z,20.73
2023-02-16T19:10:11.239Z,19.70
2023-02-16T19:12:43.028Z,21.80
2023-02-16T19:15:14.588Z,22.53
2023-02-16T19:17:44.791Z,19.03
2023-02-16T19:20:21.351Z,15.80
2023-02-16T19:22:53.803Z,16.03
2023-02-16T19:25:24.822Z,25.47
2023-02-16T19:27:56.209Z,20.33
2023-02-16T19:30:25.507Z,17.67
2023-02-16T19:32:56.137Z,19.63
2023-02-16T19:35:28.471Z,21.80
2023-02-16T19:37:59.464Z,15.67
2023-02-16T19:40:34.970Z,16.13
2023-02-16T19:43:09.580Z,16.30
2023-02-16T19:45:41.820Z,15.83
2023-02-16T19:48:13.457Z,18.33
2023-02-16T19:50:43.769Z,17.93
2023-02-16T19:53:15.582Z,18.17
2023-02-16T19:55:50.696Z,17.90
2023-02-16T19:58:23.629Z,19.37
2023-02-16T20:00:57.718Z,20.10
2023-02-16T20:03:28.504Z,17.00
2023-02-16T20:06:03.806Z,19.80
2023-02-16T20:08:34.937Z,20.93
2023-02-16T20:11:08.658Z,20.30
2023-02-16T20:13:43.727Z,22.47
2023-02-16T20:16:17.369Z,22.97
2023-02-16T20:18:48.231Z,18.83
2023-02-16T20:21:21.316Z,22.37
2023-02-16T20:23:53.103Z,20.57
2023-02-16T20:26:25.880Z,20.23
2023-02-16T20:28:58.414Z,27.13
2023-02-16T20:31:34.710Z,22.50
2023-02-16T20:34:05.889Z,22.77
2023-02-16T20:36:35.952Z,31.83
2023-02-16T20:39:08.510Z,24.10
2023-02-16T20:41:38.310Z,25.27
2023-02-16T20:44:10.206Z,24.13
2023-02-16T20:46:42.081Z,22.97
2023-02-16T20:49:12.716Z,22.10
2023-02-16T20:51:44.444Z,28.33
2023-02-16T20:54:16.229Z,26.10
2023-02-16T20:56:45.947Z,24.83
2023-02-16T20:59:18.101Z,21.67
2023-02-16T21:01:56.000Z,26.33
2023-02-16T21:04:26.192Z,24.93
2023-02-16T21:06:55.546Z,27.90
2023-02-16T21:09:25.221Z,23.97
2023-02-16T21:11:56.580Z,23.83
2023-02-16T21:14:27.593Z,23.63
2023-02-16T21:16:58.362Z,22.77
2023-02-16T21:19:28.568Z,23.80
2023-02-16T21:21:58.254Z,21.47
2023-02-16T21:24:28.606Z,21.53
2023-02-16T21:26:58.330Z,19.30
2023-02-16T21:29:29.482Z,24.10
2023-02-16T21:31:57.972Z,26.83
2023-02-16T21:34:26.593Z,18.20
2023-02-16T21:36:55.268Z,20.13
2023-02-16T21:39:44.870Z,20.23
2023-02-16T21:42:12.920Z,21.33
2023-02-16T21:44:45.197Z,20.23
2023-02-16T21:47:32.340Z,17.90
2023-02-16T21:50:01.764Z,16.90
2023-02-16T21:52:32.754Z,22.10
2023-02-16T21:55:18.169Z,15.40
2023-02-16T21:57:46.584Z,18.80
2023-02-16T22:00:17.909Z,17.10
2023-02-16T22:02:46.093Z,21.90
2023-02-16T22:05:14.467Z,18.97
2023-02-16T22:07:42.729Z,22.37
2023-02-16T22:10:11.523Z,19.40
2023-02-16T22:12:39.654Z,20.83
2023-02-16T22:15:08.403Z,15.60
2023-02-16T22:17:37.980Z,16.57
2023-02-16T22:20:07.334Z,15.80
2023-02-16T22:22:35.626Z,13.23
2023-02-16T22:25:03.819Z,18.80
2023-02-16T22:27:31.952Z,16.97
2023-02-16T22:30:00.172Z,18.67
2023-02-16T22:32:28.544Z,21.80
2023-02-16T22:34:58.120Z,17.20
2023-02-16T22:37:26.239Z,18.40
2023-02-16T22:39:55.250Z,17.60
2023-02-16T22:42:23.693Z,18.10
2023-02-16T22:44:51.866Z,20.83
2023-02-16T22:47:20.037Z,18.60
2023-02-16T22:49:48.188Z,20.87
2023-02-16T22:52:17.846Z,20.53
2023-02-16T22:54:46.199Z,17.27
2023-02-16T22:57:14.432Z,15.47
2023-02-16T22:59:42.544Z,16.70
2023-02-16T23:02:10.715Z,21.83
2023-02-16T23:04:38.947Z,20.03
2023-02-16T23:07:07.166Z,15.73
2023-02-16T23:09:36.912Z,18.20
2023-02-16T23:12:06.501Z,16.37
2023-02-16T23:14:39.884Z,14.70
2023-02-16T23:17:08.048Z,20.73
2023-02-16T23:19:36.245Z,18.37
2023-02-16T23:22:04.352Z,19.07
2023-02-16T23:24:32.509Z,17.63
2023-02-16T23:27:02.153Z,16.00
2023-02-16T23:29:30.370Z,15.70
2023-02-16T23:31:58.577Z,20.70
2023-02-16T23:34:26.833Z,18.17
2023-02-16T23:36:55.008Z,19.50
2023-02-16T23:39:23.188Z,15.77
2023-02-16T23:41:51.419Z,21.67
2023-02-16T23:44:20.980Z,12.53
2023-02-16T23:46:49.101Z,17.33
2023-02-16T23:49:17.643Z,17.70
2023-02-16T23:51:45.740Z,17.90
2023-02-16T23:54:13.920Z,19.67
2023-02-16T23:56:42.353Z,18.30
2023-02-16T23:59:10.615Z,16.23
